sensor_id;sensor_type;location;lat;lon;timestamp;pressure;altitude;pressure_sealevel;temperature;humidity
13593;BME280;6867;50.998;4.250;2024-02-14T00:00:04;101173.31;;;10.94;85.10
13593;BME280;6867;50.998;4.250;2024-02-14T00:02:31;101191.78;;;11.11;86.03
13593;BME280;6867;50.998;4.250;2024-02-14T00:04:58;101208.03;;;11.37;85.67
13593;BME280;6867;50.998;4.250;2024-02-14T00:07:25;101196.00;;;11.27;85.29
13593;BME280;6867;50.998;4.250;2024-02-14T00:09:52;101182.53;;;11.27;85.08
13593;BME280;6867;50.998;4.250;2024-02-14T00:12:19;101187.13;;;11.39;84.82
13593;BME280;6867;50.998;4.250;2024-02-14T00:14:46;101195.59;;;11.36;84.95
13593;BME280;6867;50.998;4.250;2024-02-14T00:17:15;101187.59;;;11.50;84.61
13593;BME280;6867;50.998;4.250;2024-02-14T00:19:42;101192.53;;;11.53;84.71
13593;BME280;6867;50.998;4.250;2024-02-14T00:22:08;101171.44;;;11.50;84.03
13593;BME280;6867;50.998;4.250;2024-02-14T00:24:35;101179.72;;;11.55;84.43
13593;BME280;6867;50.998;4.250;2024-02-14T00:27:02;101184.25;;;11.47;84.72
13593;BME280;6867;50.998;4.250;2024-02-14T00:29:29;101188.16;;;11.38;84.53
13593;BME280;6867;50.998;4.250;2024-02-14T00:31:56;101173.72;;;11.66;84.38
13593;BME280;6867;50.998;4.250;2024-02-14T00:34:24;101157.34;;;11.47;83.97
13593;BME280;6867;50.998;4.250;2024-02-14T00:36:50;101179.69;;;11.41;84.69
13593;BME280;6867;50.998;4.250;2024-02-14T00:39:17;101181.59;;;11.54;84.49
13593;BME280;6867;50.998;4.250;2024-02-14T00:41:45;101185.97;;;11.75;83.85
13593;BME280;6867;50.998;4.250;2024-02-14T00:44:12;101179.09;;;11.53;83.98
13593;BME280;6867;50.998;4.250;2024-02-14T00:46:42;101184.69;;;11.51;84.01
13593;BME280;6867;50.998;4.250;2024-02-14T00:49:08;101193.56;;;11.52;84.43
13593;BME280;6867;50.998;4.250;2024-02-14T00:51:39;101188.44;;;11.63;83.80
13593;BME280;6867;50.998;4.250;2024-02-14T00:54:06;101197.72;;;11.47;84.21
13593;BME280;6867;50.998;4.250;2024-02-14T00:56:33;101205.38;;;11.57;84.25
13593;BME280;6867;50.998;4.250;2024-02-14T00:59:00;101196.72;;;11.68;83.67
13593;BME280;6867;50.998;4.250;2024-02-14T01:01:27;101183.66;;;11.59;83.82
13593;BME280;6867;50.998;4.250;2024-02-14T01:03:54;101208.94;;;11.71;83.95
13593;BME280;6867;50.998;4.250;2024-02-14T01:06:20;101202.16;;;11.88;83.61
13593;BME280;6867;50.998;4.250;2024-02-14T01:08:48;101199.88;;;11.85;83.54
13593;BME280;6867;50.998;4.250;2024-02-14T01:11:15;101211.44;;;11.79;83.76
13593;BME280;6867;50.998;4.250;2024-02-14T01:13:42;101211.03;;;11.76;84.11
13593;BME280;6867;50.998;4.250;2024-02-14T01:16:08;101223.88;;;11.80;84.09
13593;BME280;6867;50.998;4.250;2024-02-14T01:18:35;101220.09;;;11.68;84.03
13593;BME280;6867;50.998;4.250;2024-02-14T01:21:02;101222.41;;;11.71;84.32
13593;BME280;6867;50.998;4.250;2024-02-14T01:23:28;101223.66;;;11.75;84.35
13593;BME280;6867;50.998;4.250;2024-02-14T01:25:56;101221.22;;;11.93;83.56
13593;BME280;6867;50.998;4.250;2024-02-14T01:28:23;101219.34;;;12.07;82.99
13593;BME280;6867;50.998;4.250;2024-02-14T01:30:49;101224.97;;;12.06;83.01
13593;BME280;6867;50.998;4.250;2024-02-14T01:33:16;101223.91;;;11.93;83.29
13593;BME280;6867;50.998;4.250;2024-02-14T01:35:44;101229.50;;;11.85;83.62
13593;BME280;6867;50.998;4.250;2024-02-14T01:38:11;101234.06;;;11.98;83.73
13593;BME280;6867;50.998;4.250;2024-02-14T01:40:41;101230.13;;;11.87;83.93
13593;BME280;6867;50.998;4.250;2024-02-14T01:43:13;101241.09;;;11.92;84.26
13593;BME280;6867;50.998;4.250;2024-02-14T01:45:40;101233.81;;;11.80;84.35
13593;BME280;6867;50.998;4.250;2024-02-14T01:48:08;101245.59;;;11.72;85.14
13593;BME280;6867;50.998;4.250;2024-02-14T01:50:36;101255.31;;;11.73;85.49
13593;BME280;6867;50.998;4.250;2024-02-14T01:53:04;101259.91;;;11.79;85.96
13593;BME280;6867;50.998;4.250;2024-02-14T01:55:31;101249.09;;;11.72;85.93
13593;BME280;6867;50.998;4.250;2024-02-14T01:57:59;101230.41;;;11.58;86.07
13593;BME280;6867;50.998;4.250;2024-02-14T02:00:30;101236.47;;;11.73;86.11
13593;BME280;6867;50.998;4.250;2024-02-14T02:02:58;101248.38;;;12.05;86.45
13593;BME280;6867;50.998;4.250;2024-02-14T02:05:24;101218.72;;;12.52;83.49
13593;BME280;6867;50.998;4.250;2024-02-14T02:07:51;101211.66;;;12.57;82.42
13593;BME280;6867;50.998;4.250;2024-02-14T02:10:19;101211.22;;;12.74;81.94
13593;BME280;6867;50.998;4.250;2024-02-14T02:12:46;101211.88;;;12.49;81.86
13593;BME280;6867;50.998;4.250;2024-02-14T02:15:13;101221.22;;;12.13;83.40
13593;BME280;6867;50.998;4.250;2024-02-14T02:17:41;101233.22;;;11.98;84.44
13593;BME280;6867;50.998;4.250;2024-02-14T02:20:11;101235.72;;;12.06;84.54
13593;BME280;6867;50.998;4.250;2024-02-14T02:22:44;101233.22;;;11.84;85.03
13593;BME280;6867;50.998;4.250;2024-02-14T02:25:11;101243.16;;;11.84;85.37
13593;BME280;6867;50.998;4.250;2024-02-14T02:27:37;101250.44;;;12.30;84.92
13593;BME280;6867;50.998;4.250;2024-02-14T02:30:05;101229.50;;;12.12;84.15
13593;BME280;6867;50.998;4.250;2024-02-14T02:32:33;101237.59;;;12.05;84.68
13593;BME280;6867;50.998;4.250;2024-02-14T02:35:00;101254.16;;;12.15;85.13
13593;BME280;6867;50.998;4.250;2024-02-14T02:37:27;101258.09;;;12.06;84.85
13593;BME280;6867;50.998;4.250;2024-02-14T02:39:56;101249.81;;;12.08;85.06
13593;BME280;6867;50.998;4.250;2024-02-14T02:42:23;101241.53;;;12.16;84.47
13593;BME280;6867;50.998;4.250;2024-02-14T02:44:50;101264.31;;;12.20;84.76
13593;BME280;6867;50.998;4.250;2024-02-14T02:47:17;101263.50;;;12.13;85.46
13593;BME280;6867;50.998;4.250;2024-02-14T02:49:44;101276.34;;;12.04;85.80
13593;BME280;6867;50.998;4.250;2024-02-14T02:52:11;101279.63;;;11.93;86.74
13593;BME280;6867;50.998;4.250;2024-02-14T02:54:38;101268.44;;;12.16;86.39
13593;BME280;6867;50.998;4.250;2024-02-14T02:57:07;101272.59;;;12.12;86.34
13593;BME280;6867;50.998;4.250;2024-02-14T02:59:34;101263.66;;;11.85;87.25
13593;BME280;6867;50.998;4.250;2024-02-14T03:02:02;101274.53;;;11.70;88.10
13593;BME280;6867;50.998;4.250;2024-02-14T03:04:29;101282.09;;;11.94;88.07
13593;BME280;6867;50.998;4.250;2024-02-14T03:06:57;101281.28;;;12.01;87.64
13593;BME280;6867;50.998;4.250;2024-02-14T03:09:24;101276.50;;;11.89;87.96
13593;BME280;6867;50.998;4.250;2024-02-14T03:11:51;101283.34;;;12.12;87.77
13593;BME280;6867;50.998;4.250;2024-02-14T03:14:20;101275.06;;;11.93;87.37
13593;BME280;6867;50.998;4.250;2024-02-14T03:16:47;101278.19;;;11.97;87.45
13593;BME280;6867;50.998;4.250;2024-02-14T03:19:14;101293.31;;;12.11;87.55
13593;BME280;6867;50.998;4.250;2024-02-14T03:21:40;101283.56;;;12.04;87.54
13593;BME280;6867;50.998;4.250;2024-02-14T03:24:08;101283.41;;;12.25;87.71
13593;BME280;6867;50.998;4.250;2024-02-14T03:26:36;101275.69;;;12.02;88.07
13593;BME280;6867;50.998;4.250;2024-02-14T03:29:04;101285.22;;;12.05;88.36
13593;BME280;6867;50.998;4.250;2024-02-14T03:31:33;101279.25;;;12.36;87.55
13593;BME280;6867;50.998;4.250;2024-02-14T03:33:59;101270.75;;;12.12;87.78
13593;BME280;6867;50.998;4.250;2024-02-14T03:36:26;101275.91;;;12.14;88.14
13593;BME280;6867;50.998;4.250;2024-02-14T03:38:56;101272.19;;;12.08;88.19
13593;BME280;6867;50.998;4.250;2024-02-14T03:41:23;101276.72;;;12.08;88.84
13593;BME280;6867;50.998;4.250;2024-02-14T03:43:50;101276.31;;;12.11;88.46
13593;BME280;6867;50.998;4.250;2024-02-14T03:46:18;101275.53;;;12.17;88.41
13593;BME280;6867;50.998;4.250;2024-02-14T03:48:48;101281.28;;;12.20;87.89
13593;BME280;6867;50.998;4.250;2024-02-14T03:51:14;101278.41;;;12.35;87.81
13593;BME280;6867;50.998;4.250;2024-02-14T03:53:41;101275.94;;;12.47;86.91
13593;BME280;6867;50.998;4.250;2024-02-14T03:56:08;101287.13;;;12.44;87.33
13593;BME280;6867;50.998;4.250;2024-02-14T03:58:35;101259.28;;;12.96;85.03
13593;BME280;6867;50.998;4.250;2024-02-14T04:01:02;101262.63;;;12.79;84.57
13593;BME280;6867;50.998;4.250;2024-02-14T04:03:29;101275.09;;;12.60;85.49
13593;BME280;6867;50.998;4.250;2024-02-14T04:05:57;101286.69;;;12.60;85.89
13593;BME280;6867;50.998;4.250;2024-02-14T04:08:24;101295.16;;;12.11;87.44
13593;BME280;6867;50.998;4.250;2024-02-14T04:10:50;101297.06;;;12.30;87.55
13593;BME280;6867;50.998;4.250;2024-02-14T04:13:19;101298.91;;;12.23;88.01
13593;BME280;6867;50.998;4.250;2024-02-14T04:15:46;101290.84;;;12.23;87.88
13593;BME280;6867;50.998;4.250;2024-02-14T04:18:13;101296.22;;;12.36;88.22
13593;BME280;6867;50.998;4.250;2024-02-14T04:20:40;101299.13;;;12.21;88.34
13593;BME280;6867;50.998;4.250;2024-02-14T04:23:08;101294.38;;;12.43;87.72
13593;BME280;6867;50.998;4.250;2024-02-14T04:25:35;101287.94;;;12.31;87.82
13593;BME280;6867;50.998;4.250;2024-02-14T04:28:02;101302.47;;;12.57;88.05
13593;BME280;6867;50.998;4.250;2024-02-14T04:30:29;101294.59;;;12.49;87.45
13593;BME280;6867;50.998;4.250;2024-02-14T04:32:56;101304.34;;;12.63;87.64
13593;BME280;6867;50.998;4.250;2024-02-14T04:35:23;101298.50;;;12.66;87.21
13593;BME280;6867;50.998;4.250;2024-02-14T04:37:49;101285.03;;;12.66;86.39
13593;BME280;6867;50.998;4.250;2024-02-14T04:40:19;101290.88;;;12.63;86.72
13593;BME280;6867;50.998;4.250;2024-02-14T04:42:46;101299.34;;;12.80;86.47
13593;BME280;6867;50.998;4.250;2024-02-14T04:45:13;101290.44;;;12.79;86.15
13593;BME280;6867;50.998;4.250;2024-02-14T04:47:40;101296.66;;;12.53;86.87
13593;BME280;6867;50.998;4.250;2024-02-14T04:50:08;101300.34;;;12.79;86.28
13593;BME280;6867;50.998;4.250;2024-02-14T04:52:35;101296.25;;;12.63;86.91
13593;BME280;6867;50.998;4.250;2024-02-14T04:55:02;101299.34;;;12.66;86.74
13593;BME280;6867;50.998;4.250;2024-02-14T04:57:30;101301.66;;;12.63;86.88
13593;BME280;6867;50.998;4.250;2024-02-14T05:00:00;101302.06;;;12.60;86.60
13593;BME280;6867;50.998;4.250;2024-02-14T05:02:30;101307.63;;;12.78;86.43
13593;BME280;6867;50.998;4.250;2024-02-14T05:04:56;101296.44;;;12.68;86.38
13593;BME280;6867;50.998;4.250;2024-02-14T05:07:23;101304.09;;;12.78;86.27
13593;BME280;6867;50.998;4.250;2024-02-14T05:09:50;101300.78;;;12.69;86.82
13593;BME280;6867;50.998;4.250;2024-02-14T05:12:17;101299.53;;;12.78;86.14
13593;BME280;6867;50.998;4.250;2024-02-14T05:14:46;101305.97;;;12.70;86.79
13593;BME280;6867;50.998;4.250;2024-02-14T05:17:13;101306.81;;;12.71;86.76
13593;BME280;6867;50.998;4.250;2024-02-14T05:19:41;101307.63;;;12.78;86.65
13593;BME280;6867;50.998;4.250;2024-02-14T05:22:08;101308.25;;;12.80;86.47
13593;BME280;6867;50.998;4.250;2024-02-14T05:24:35;101298.28;;;12.94;86.23
13593;BME280;6867;50.998;4.250;2024-02-14T05:27:03;101305.13;;;12.70;86.38
13593;BME280;6867;50.998;4.250;2024-02-14T05:29:33;101306.59;;;12.92;86.43
13593;BME280;6867;50.998;4.250;2024-02-14T05:32:01;101300.34;;;13.05;86.11
13593;BME280;6867;50.998;4.250;2024-02-14T05:34:28;101232.97;;;14.13;80.51
13593;BME280;6867;50.998;4.250;2024-02-14T05:36:54;101276.25;;;13.17;83.09
13593;BME280;6867;50.998;4.250;2024-02-14T05:39:21;101293.72;;;12.75;84.95
13593;BME280;6867;50.998;4.250;2024-02-14T05:41:48;101310.94;;;12.74;86.01
13593;BME280;6867;50.998;4.250;2024-02-14T05:44:15;101322.16;;;12.51;87.07
13593;BME280;6867;50.998;4.250;2024-02-14T05:46:42;101330.66;;;12.48;87.65
13593;BME280;6867;50.998;4.250;2024-02-14T05:49:10;101330.44;;;12.56;87.91
13593;BME280;6867;50.998;4.250;2024-02-14T05:51:37;101337.09;;;12.46;88.02
13593;BME280;6867;50.998;4.250;2024-02-14T05:54:04;101333.16;;;12.56;88.03
13593;BME280;6867;50.998;4.250;2024-02-14T05:56:30;101330.03;;;12.59;87.60
13593;BME280;6867;50.998;4.250;2024-02-14T05:58:57;101327.75;;;12.49;87.60
13593;BME280;6867;50.998;4.250;2024-02-14T06:01:24;101332.72;;;12.45;88.41
13593;BME280;6867;50.998;4.250;2024-02-14T06:03:50;101344.97;;;12.55;88.30
13593;BME280;6867;50.998;4.250;2024-02-14T06:06:18;101329.19;;;12.52;88.08
13593;BME280;6867;50.998;4.250;2024-02-14T06:08:45;101323.41;;;12.68;87.49
13593;BME280;6867;50.998;4.250;2024-02-14T06:11:12;101323.19;;;12.50;87.36
13593;BME280;6867;50.998;4.250;2024-02-14T06:13:39;101320.72;;;12.55;87.62
13593;BME280;6867;50.998;4.250;2024-02-14T06:16:06;101333.16;;;12.76;87.32
13593;BME280;6867;50.998;4.250;2024-02-14T06:18:33;101315.69;;;12.98;86.44
13593;BME280;6867;50.998;4.250;2024-02-14T06:21:00;101310.34;;;12.71;86.31
13593;BME280;6867;50.998;4.250;2024-02-14T06:23:28;101314.47;;;12.74;86.46
13593;BME280;6867;50.998;4.250;2024-02-14T06:25:59;101322.97;;;12.84;86.46
13593;BME280;6867;50.998;4.250;2024-02-14T06:28:26;101318.41;;;12.85;86.25
13593;BME280;6867;50.998;4.250;2024-02-14T06:30:53;101320.69;;;12.81;86.11
13593;BME280;6867;50.998;4.250;2024-02-14T06:33:20;101308.63;;;13.04;85.25
13593;BME280;6867;50.998;4.250;2024-02-14T06:35:46;101314.88;;;12.84;85.73
13593;BME280;6867;50.998;4.250;2024-02-14T06:38:13;101329.41;;;12.90;85.81
13593;BME280;6867;50.998;4.250;2024-02-14T06:40:41;101302.78;;;13.27;83.97
13593;BME280;6867;50.998;4.250;2024-02-14T06:43:09;101310.91;;;13.13;84.64
13593;BME280;6867;50.998;4.250;2024-02-14T06:45:37;101334.97;;;13.02;85.39
13593;BME280;6867;50.998;4.250;2024-02-14T06:48:04;101329.59;;;12.82;86.03
13593;BME280;6867;50.998;4.250;2024-02-14T06:50:31;101327.72;;;12.95;85.79
13593;BME280;6867;50.998;4.250;2024-02-14T06:52:58;101337.47;;;13.03;85.64
13593;BME280;6867;50.998;4.250;2024-02-14T06:55:25;101345.53;;;13.16;86.00
13593;BME280;6867;50.998;4.250;2024-02-14T06:57:53;101346.41;;;12.97;85.93
13593;BME280;6867;50.998;4.250;2024-02-14T07:00:22;101346.19;;;12.79;86.24
13593;BME280;6867;50.998;4.250;2024-02-14T07:02:49;101352.59;;;13.11;86.18
13593;BME280;6867;50.998;4.250;2024-02-14T07:05:16;101344.50;;;13.24;84.97
13593;BME280;6867;50.998;4.250;2024-02-14T07:07:42;101346.19;;;13.05;85.44
13593;BME280;6867;50.998;4.250;2024-02-14T07:10:10;101352.59;;;13.11;84.98
13593;BME280;6867;50.998;4.250;2024-02-14T07:12:36;101347.63;;;13.28;85.08
13593;BME280;6867;50.998;4.250;2024-02-14T07:15:07;101363.59;;;13.03;86.19
13593;BME280;6867;50.998;4.250;2024-02-14T07:17:34;101371.06;;;13.07;85.68
13593;BME280;6867;50.998;4.250;2024-02-14T07:20:01;101371.47;;;13.11;85.99
13593;BME280;6867;50.998;4.250;2024-02-14T07:22:28;101367.13;;;13.23;85.23
13593;BME280;6867;50.998;4.250;2024-02-14T07:24:55;101358.41;;;13.21;85.37
13593;BME280;6867;50.998;4.250;2024-02-14T07:27:22;101356.31;;;13.16;85.19
13593;BME280;6867;50.998;4.250;2024-02-14T07:29:49;101350.72;;;13.31;84.62
13593;BME280;6867;50.998;4.250;2024-02-14T07:32:18;101352.97;;;13.48;84.15
13593;BME280;6867;50.998;4.250;2024-02-14T07:34:44;101355.94;;;13.13;84.65
13593;BME280;6867;50.998;4.250;2024-02-14T07:37:11;101369.59;;;13.31;84.73
13593;BME280;6867;50.998;4.250;2024-02-14T07:39:40;101360.84;;;13.49;84.10
13593;BME280;6867;50.998;4.250;2024-02-14T07:42:07;101362.47;;;13.50;83.91
13593;BME280;6867;50.998;4.250;2024-02-14T07:44:33;101359.19;;;13.55;83.49
13593;BME280;6867;50.998;4.250;2024-02-14T07:47:01;101362.81;;;13.80;82.79
13593;BME280;6867;50.998;4.250;2024-02-14T07:49:30;101345.78;;;13.80;82.20
13593;BME280;6867;50.998;4.250;2024-02-14T07:51:57;101358.91;;;13.69;82.09
13593;BME280;6867;50.998;4.250;2024-02-14T07:54:23;101368.28;;;13.60;83.08
13593;BME280;6867;50.998;4.250;2024-02-14T07:56:50;101377.19;;;13.67;83.35
13593;BME280;6867;50.998;4.250;2024-02-14T07:59:17;101383.25;;;13.56;83.75
13593;BME280;6867;50.998;4.250;2024-02-14T08:01:43;101384.75;;;13.39;84.24
13593;BME280;6867;50.998;4.250;2024-02-14T08:04:10;101397.00;;;13.28;85.17
13593;BME280;6867;50.998;4.250;2024-02-14T08:06:38;101410.28;;;13.23;86.10
13593;BME280;6867;50.998;4.250;2024-02-14T08:09:05;101412.75;;;13.11;86.91
13593;BME280;6867;50.998;4.250;2024-02-14T08:11:35;101410.47;;;13.41;86.74
13593;BME280;6867;50.998;4.250;2024-02-14T08:14:01;101405.06;;;13.41;86.75
13593;BME280;6867;50.998;4.250;2024-02-14T08:16:28;101407.72;;;13.68;86.18
13593;BME280;6867;50.998;4.250;2024-02-14T08:18:55;101390.22;;;13.84;84.76
13593;BME280;6867;50.998;4.250;2024-02-14T08:21:24;101385.94;;;14.08;84.19
13593;BME280;6867;50.998;4.250;2024-02-14T08:23:52;101392.13;;;14.15;83.93
13593;BME280;6867;50.998;4.250;2024-02-14T08:26:20;101387.47;;;14.29;83.51
13593;BME280;6867;50.998;4.250;2024-02-14T08:28:47;101383.75;;;14.30;83.18
13593;BME280;6867;50.998;4.250;2024-02-14T08:31:14;101380.72;;;14.44;82.97
13593;BME280;6867;50.998;4.250;2024-02-14T08:33:41;101390.81;;;14.24;82.99
13593;BME280;6867;50.998;4.250;2024-02-14T08:36:08;101399.91;;;14.36;83.29
13593;BME280;6867;50.998;4.250;2024-02-14T08:38:35;101394.97;;;14.27;83.52
13593;BME280;6867;50.998;4.250;2024-02-14T08:41:03;101396.56;;;14.03;83.81
13593;BME280;6867;50.998;4.250;2024-02-14T08:43:30;101398.94;;;14.24;83.82
13593;BME280;6867;50.998;4.250;2024-02-14T08:45:59;101416.91;;;14.43;83.39
13593;BME280;6867;50.998;4.250;2024-02-14T08:48:26;101403.81;;;14.47;82.80
13593;BME280;6867;50.998;4.250;2024-02-14T08:50:54;101397.19;;;14.36;83.03
13593;BME280;6867;50.998;4.250;2024-02-14T08:53:21;101411.16;;;14.33;82.80
13593;BME280;6867;50.998;4.250;2024-02-14T08:55:48;101423.91;;;14.58;83.07
13593;BME280;6867;50.998;4.250;2024-02-14T08:58:16;101413.72;;;14.60;83.03
13593;BME280;6867;50.998;4.250;2024-02-14T09:00:42;101398.25;;;14.67;81.61
13593;BME280;6867;50.998;4.250;2024-02-14T09:03:09;101397.13;;;14.81;81.17
13593;BME280;6867;50.998;4.250;2024-02-14T09:05:36;101384.97;;;14.90;80.68
13593;BME280;6867;50.998;4.250;2024-02-14T09:08:04;101389.00;;;14.56;81.08
13593;BME280;6867;50.998;4.250;2024-02-14T09:10:30;101388.19;;;14.56;81.67
13593;BME280;6867;50.998;4.250;2024-02-14T09:12:57;101396.19;;;14.69;81.08
13593;BME280;6867;50.998;4.250;2024-02-14T09:15:28;101402.59;;;14.75;80.86
13593;BME280;6867;50.998;4.250;2024-02-14T09:17:56;101410.84;;;14.55;81.75
13593;BME280;6867;50.998;4.250;2024-02-14T09:20:23;101413.84;;;14.72;81.42
13593;BME280;6867;50.998;4.250;2024-02-14T09:22:49;101418.59;;;14.76;81.69
13593;BME280;6867;50.998;4.250;2024-02-14T09:25:16;101420.78;;;14.61;82.21
13593;BME280;6867;50.998;4.250;2024-02-14T09:27:43;101420.94;;;14.66;81.98
13593;BME280;6867;50.998;4.250;2024-02-14T09:30:12;101416.94;;;14.37;82.48
13593;BME280;6867;50.998;4.250;2024-02-14T09:32:41;101419.06;;;14.35;83.46
13593;BME280;6867;50.998;4.250;2024-02-14T09:35:08;101422.97;;;14.39;83.80
13593;BME280;6867;50.998;4.250;2024-02-14T09:37:34;101432.34;;;14.36;83.97
13593;BME280;6867;50.998;4.250;2024-02-14T09:40:04;101430.22;;;14.45;84.63
13593;BME280;6867;50.998;4.250;2024-02-14T09:42:35;101437.69;;;14.50;84.23
13593;BME280;6867;50.998;4.250;2024-02-14T09:45:06;101428.34;;;14.52;84.16
13593;BME280;6867;50.998;4.250;2024-02-14T09:47:33;101428.81;;;14.74;83.33
13593;BME280;6867;50.998;4.250;2024-02-14T09:50:02;101437.44;;;14.58;84.20
13593;BME280;6867;50.998;4.250;2024-02-14T09:52:32;101438.31;;;14.52;84.67
13593;BME280;6867;50.998;4.250;2024-02-14T09:55:00;101437.56;;;14.31;85.06
13593;BME280;6867;50.998;4.250;2024-02-14T09:57:29;101437.72;;;14.43;84.54
13593;BME280;6867;50.998;4.250;2024-02-14T09:59:56;101448.31;;;14.51;85.36
13593;BME280;6867;50.998;4.250;2024-02-14T10:02:23;101448.00;;;14.21;86.35
13593;BME280;6867;50.998;4.250;2024-02-14T10:04:50;101465.66;;;14.30;86.96
13593;BME280;6867;50.998;4.250;2024-02-14T10:07:19;101452.72;;;14.39;86.46
13593;BME280;6867;50.998;4.250;2024-02-14T10:09:45;101458.59;;;14.23;87.46
13593;BME280;6867;50.998;4.250;2024-02-14T10:12:12;101458.91;;;14.53;87.00
13593;BME280;6867;50.998;4.250;2024-02-14T10:14:39;101445.19;;;14.41;86.84
13593;BME280;6867;50.998;4.250;2024-02-14T10:17:08;101452.28;;;15.05;85.68
13593;BME280;6867;50.998;4.250;2024-02-14T10:19:35;101436.16;;;14.92;84.73
13593;BME280;6867;50.998;4.250;2024-02-14T10:22:02;101436.22;;;14.85;84.89
13593;BME280;6867;50.998;4.250;2024-02-14T10:24:32;101442.06;;;14.82;85.14
13593;BME280;6867;50.998;4.250;2024-02-14T10:26:59;101454.59;;;14.77;85.73
13593;BME280;6867;50.998;4.250;2024-02-14T10:29:26;101453.56;;;15.03;84.98
13593;BME280;6867;50.998;4.250;2024-02-14T10:31:53;101446.88;;;14.80;85.38
13593;BME280;6867;50.998;4.250;2024-02-14T10:34:24;101454.53;;;14.83;85.30
13593;BME280;6867;50.998;4.250;2024-02-14T10:36:52;101463.16;;;14.67;86.06
13593;BME280;6867;50.998;4.250;2024-02-14T10:39:20;101454.53;;;14.83;86.18
13593;BME280;6867;50.998;4.250;2024-02-14T10:41:50;101452.56;;;14.97;85.55
13593;BME280;6867;50.998;4.250;2024-02-14T10:44:17;101448.19;;;14.96;85.38
13593;BME280;6867;50.998;4.250;2024-02-14T10:46:44;101439.03;;;15.22;84.90
13593;BME280;6867;50.998;4.250;2024-02-14T10:49:14;101454.50;;;15.15;85.20
13593;BME280;6867;50.998;4.250;2024-02-14T10:51:43;101453.66;;;15.39;84.75
13593;BME280;6867;50.998;4.250;2024-02-14T10:54:14;101423.63;;;15.66;82.94
13593;BME280;6867;50.998;4.250;2024-02-14T10:56:42;101420.69;;;15.86;81.92
13593;BME280;6867;50.998;4.250;2024-02-14T10:59:16;101415.94;;;16.00;80.94
13593;BME280;6867;50.998;4.250;2024-02-14T11:01:44;101425.13;;;15.18;82.68
13593;BME280;6867;50.998;4.250;2024-02-14T11:04:11;101442.50;;;15.04;84.14
13593;BME280;6867;50.998;4.250;2024-02-14T11:06:44;101463.09;;;14.80;85.99
13593;BME280;6867;50.998;4.250;2024-02-14T11:09:12;101456.63;;;14.81;85.86
13593;BME280;6867;50.998;4.250;2024-02-14T11:11:42;101476.63;;;14.80;86.98
13593;BME280;6867;50.998;4.250;2024-02-14T11:14:08;101464.75;;;14.81;87.00
13593;BME280;6867;50.998;4.250;2024-02-14T11:16:37;101451.94;;;14.95;87.03
13593;BME280;6867;50.998;4.250;2024-02-14T11:19:07;101450.63;;;15.04;86.23
13593;BME280;6867;50.998;4.250;2024-02-14T11:21:35;101456.78;;;15.18;85.76
13593;BME280;6867;50.998;4.250;2024-02-14T11:24:06;101446.84;;;15.55;84.84
13593;BME280;6867;50.998;4.250;2024-02-14T11:26:40;101424.44;;;15.23;84.08
13593;BME280;6867;50.998;4.250;2024-02-14T11:29:06;101419.94;;;15.97;82.46
13593;BME280;6867;50.998;4.250;2024-02-14T11:31:36;101405.13;;;16.41;80.83
13593;BME280;6867;50.998;4.250;2024-02-14T11:34:04;101387.47;;;16.39;79.52
13593;BME280;6867;50.998;4.250;2024-02-14T11:36:32;101408.34;;;15.72;81.33
13593;BME280;6867;50.998;4.250;2024-02-14T11:39:02;101453.00;;;15.19;84.21
13593;BME280;6867;50.998;4.250;2024-02-14T11:41:29;101455.75;;;15.37;84.91
13593;BME280;6867;50.998;4.250;2024-02-14T11:44:00;101448.38;;;15.26;84.91
13593;BME280;6867;50.998;4.250;2024-02-14T11:46:29;101446.78;;;15.18;85.64
13593;BME280;6867;50.998;4.250;2024-02-14T11:48:57;101443.06;;;15.56;84.80
13593;BME280;6867;50.998;4.250;2024-02-14T11:51:26;101432.31;;;16.05;83.46
13593;BME280;6867;50.998;4.250;2024-02-14T11:53:53;101407.88;;;16.53;81.31
13593;BME280;6867;50.998;4.250;2024-02-14T11:56:20;101396.09;;;16.17;80.74
13593;BME280;6867;50.998;4.250;2024-02-14T11:58:51;101426.69;;;15.51;83.10
13593;BME280;6867;50.998;4.250;2024-02-14T12:01:18;101440.72;;;15.41;84.51
13593;BME280;6867;50.998;4.250;2024-02-14T12:03:45;101433.41;;;15.42;84.86
13593;BME280;6867;50.998;4.250;2024-02-14T12:06:14;101429.31;;;15.14;85.55
13593;BME280;6867;50.998;4.250;2024-02-14T12:08:41;101442.69;;;15.09;86.63
13593;BME280;6867;50.998;4.250;2024-02-14T12:11:08;101437.53;;;15.26;86.38
13593;BME280;6867;50.998;4.250;2024-02-14T12:13:35;101438.66;;;14.93;86.72
13593;BME280;6867;50.998;4.250;2024-02-14T12:16:03;101420.53;;;15.99;84.69
13593;BME280;6867;50.998;4.250;2024-02-14T12:18:34;101408.06;;;15.55;84.00
13593;BME280;6867;50.998;4.250;2024-02-14T12:21:04;101431.47;;;15.31;85.75
13593;BME280;6867;50.998;4.250;2024-02-14T12:23:34;101436.75;;;15.44;85.76
13593;BME280;6867;50.998;4.250;2024-02-14T12:26:01;101431.75;;;15.23;86.21
13593;BME280;6867;50.998;4.250;2024-02-14T12:28:29;101434.84;;;15.01;86.36
13593;BME280;6867;50.998;4.250;2024-02-14T12:30:57;101444.72;;;15.14;86.94
13593;BME280;6867;50.998;4.250;2024-02-14T12:33:24;101448.38;;;15.26;86.93
13593;BME280;6867;50.998;4.250;2024-02-14T12:35:54;101444.72;;;15.14;87.26
13593;BME280;6867;50.998;4.250;2024-02-14T12:38:21;101445.44;;;15.28;87.12
13593;BME280;6867;50.998;4.250;2024-02-14T12:40:50;101439.59;;;15.49;86.81
13593;BME280;6867;50.998;4.250;2024-02-14T12:43:19;101436.75;;;15.44;86.48
13593;BME280;6867;50.998;4.250;2024-02-14T12:45:46;101433.44;;;15.60;85.85
13593;BME280;6867;50.998;4.250;2024-02-14T12:48:22;101434.94;;;15.56;85.88
13593;BME280;6867;50.998;4.250;2024-02-14T12:50:49;101438.69;;;15.37;86.50
13593;BME280;6867;50.998;4.250;2024-02-14T12:53:17;101432.53;;;15.48;86.74
13593;BME280;6867;50.998;4.250;2024-02-14T12:55:45;101433.78;;;15.45;86.84
13593;BME280;6867;50.998;4.250;2024-02-14T12:58:14;101420.84;;;15.73;85.22
13593;BME280;6867;50.998;4.250;2024-02-14T13:00:42;101399.97;;;16.40;82.41